sensor_id;sensor_type;location;lat;lon;timestamp;temperature;humidity
240;DHT22;104;53.590;10.004;2022-09-24T00:02:07;10.40;96.80
240;DHT22;104;53.590;10.004;2022-09-24T00:04:37;10.50;96.80
240;DHT22;104;53.590;10.004;2022-09-24T00:07:04;10.50;96.80
240;DHT22;104;53.590;10.004;2022-09-24T00:09:31;10.50;96.70
240;DHT22;104;53.590;10.004;2022-09-24T00:11:58;10.50;96.70
240;DHT22;104;53.590;10.004;2022-09-24T00:14:27;10.40;96.80
240;DHT22;104;53.590;10.004;2022-09-24T00:16:54;10.40;96.80
240;DHT22;104;53.590;10.004;2022-09-24T00:21:50;10.30;96.80
240;DHT22;104;53.590;10.004;2022-09-24T00:24:17;10.20;96.80
240;DHT22;104;53.590;10.004;2022-09-24T00:26:58;10.20;96.80
240;DHT22;104;53.590;10.004;2022-09-24T00:29:25;10.20;96.80
240;DHT22;104;53.590;10.004;2022-09-24T00:31:52;10.10;96.80
240;DHT22;104;53.590;10.004;2022-09-24T00:34:20;10.10;96.80
240;DHT22;104;53.590;10.004;2022-09-24T00:36:47;10.10;96.80
240;DHT22;104;53.590;10.004;2022-09-24T00:39:15;10.00;96.80
240;DHT22;104;53.590;10.004;2022-09-24T00:41:43;10.10;96.80
240;DHT22;104;53.590;10.004;2022-09-24T00:44:50;10.10;96.80
240;DHT22;104;53.590;10.004;2022-09-24T00:47:30;10.20;96.80
240;DHT22;104;53.590;10.004;2022-09-24T00:50:06;10.10;96.80
240;DHT22;104;53.590;10.004;2022-09-24T00:52:38;10.10;96.80
240;DHT22;104;53.590;10.004;2022-09-24T00:55:08;10.00;96.80
240;DHT22;104;53.590;10.004;2022-09-24T00:57:37;10.00;96.80
240;DHT22;104;53.590;10.004;2022-09-24T01:00:05;9.90;96.80
240;DHT22;104;53.590;10.004;2022-09-24T01:02:34;9.90;96.80
240;DHT22;104;53.590;10.004;2022-09-24T01:05:02;10.00;96.80
240;DHT22;104;53.590;10.004;2022-09-24T01:07:33;10.00;96.80
240;DHT22;104;53.590;10.004;2022-09-24T01:10:00;10.00;96.80
240;DHT22;104;53.590;10.004;2022-09-24T01:12:34;10.10;96.80
240;DHT22;104;53.590;10.004;2022-09-24T01:15:14;10.10;96.80
240;DHT22;104;53.590;10.004;2022-09-24T01:17:49;10.10;96.80
240;DHT22;104;53.590;10.004;2022-09-24T01:20:47;10.00;96.80
240;DHT22;104;53.590;10.004;2022-09-24T01:23:40;10.00;96.80
240;DHT22;104;53.590;10.004;2022-09-24T01:26:21;10.10;96.80
240;DHT22;104;53.590;10.004;2022-09-24T01:31:34;10.10;95.80
240;DHT22;104;53.590;10.004;2022-09-24T01:34:05;10.10;95.80
240;DHT22;104;53.590;10.004;2022-09-24T01:36:33;10.10;95.70
240;DHT22;104;53.590;10.004;2022-09-24T01:39:03;10.10;95.40
240;DHT22;104;53.590;10.004;2022-09-24T01:41:31;10.10;95.40
240;DHT22;104;53.590;10.004;2022-09-24T01:43:59;10.00;95.40
240;DHT22;104;53.590;10.004;2022-09-24T01:46:35;10.00;95.60
240;DHT22;104;53.590;10.004;2022-09-24T01:49:03;10.00;95.70
240;DHT22;104;53.590;10.004;2022-09-24T01:51:34;10.00;95.50
240;DHT22;104;53.590;10.004;2022-09-24T01:54:07;10.10;95.20
240;DHT22;104;53.590;10.004;2022-09-24T01:56:41;10.10;95.00
240;DHT22;104;53.590;10.004;2022-09-24T01:59:13;10.10;95.10
240;DHT22;104;53.590;10.004;2022-09-24T02:01:47;10.20;94.70
240;DHT22;104;53.590;10.004;2022-09-24T02:04:18;10.20;94.40
240;DHT22;104;53.590;10.004;2022-09-24T02:06:50;10.20;94.50
240;DHT22;104;53.590;10.004;2022-09-24T02:09:32;10.20;94.70
240;DHT22;104;53.590;10.004;2022-09-24T02:12:02;10.20;94.70
240;DHT22;104;53.590;10.004;2022-09-24T02:14:36;10.20;94.70
240;DHT22;104;53.590;10.004;2022-09-24T02:17:06;10.10;94.90
240;DHT22;104;53.590;10.004;2022-09-24T02:19:35;10.10;95.00
240;DHT22;104;53.590;10.004;2022-09-24T02:22:05;10.20;94.90
240;DHT22;104;53.590;10.004;2022-09-24T02:24:36;10.10;94.80
240;DHT22;104;53.590;10.004;2022-09-24T02:27:06;10.10;95.10
240;DHT22;104;53.590;10.004;2022-09-24T02:29:33;10.00;95.60
240;DHT22;104;53.590;10.004;2022-09-24T02:32:01;9.90;95.60
240;DHT22;104;53.590;10.004;2022-09-24T02:34:33;9.80;95.90
240;DHT22;104;53.590;10.004;2022-09-24T02:37:05;9.70;96.30
240;DHT22;104;53.590;10.004;2022-09-24T02:39:32;9.60;96.80
240;DHT22;104;53.590;10.004;2022-09-24T02:42:02;9.60;96.80
240;DHT22;104;53.590;10.004;2022-09-24T02:44:30;9.60;96.80
240;DHT22;104;53.590;10.004;2022-09-24T02:46:57;9.50;96.80
240;DHT22;104;53.590;10.004;2022-09-24T02:49:24;9.50;96.80
240;DHT22;104;53.590;10.004;2022-09-24T02:51:53;9.60;96.80
240;DHT22;104;53.590;10.004;2022-09-24T02:54:20;9.40;96.80
240;DHT22;104;53.590;10.004;2022-09-24T02:56:48;9.30;96.80
240;DHT22;104;53.590;10.004;2022-09-24T02:59:15;9.30;96.80
240;DHT22;104;53.590;10.004;2022-09-24T03:01:44;9.30;96.80
240;DHT22;104;53.590;10.004;2022-09-24T03:04:11;9.20;96.80
240;DHT22;104;53.590;10.004;2022-09-24T03:06:38;9.20;96.80
240;DHT22;104;53.590;10.004;2022-09-24T03:09:07;9.20;96.80
240;DHT22;104;53.590;10.004;2022-09-24T03:11:34;9.10;96.80
240;DHT22;104;53.590;10.004;2022-09-24T03:14:01;9.10;96.80
240;DHT22;104;53.590;10.004;2022-09-24T03:18:55;9.00;96.80
240;DHT22;104;53.590;10.004;2022-09-24T03:21:22;9.00;96.80
240;DHT22;104;53.590;10.004;2022-09-24T03:23:49;9.00;96.80
240;DHT22;104;53.590;10.004;2022-09-24T03:26:18;9.00;96.80
240;DHT22;104;53.590;10.004;2022-09-24T03:31:12;9.00;96.80
240;DHT22;104;53.590;10.004;2022-09-24T03:33:41;9.00;96.80
240;DHT22;104;53.590;10.004;2022-09-24T03:36:11;9.00;96.80
240;DHT22;104;53.590;10.004;2022-09-24T03:38:39;9.00;96.80
240;DHT22;104;53.590;10.004;2022-09-24T03:41:08;9.00;96.80
240;DHT22;104;53.590;10.004;2022-09-24T03:43:37;9.00;96.80
240;DHT22;104;53.590;10.004;2022-09-24T03:46:05;9.00;96.80
240;DHT22;104;53.590;10.004;2022-09-24T03:48:33;9.00;96.80
240;DHT22;104;53.590;10.004;2022-09-24T03:51:02;9.00;96.80
240;DHT22;104;53.590;10.004;2022-09-24T03:53:30;8.90;96.80
240;DHT22;104;53.590;10.004;2022-09-24T03:55:58;9.00;96.80
240;DHT22;104;53.590;10.004;2022-09-24T03:58:27;9.10;96.80
240;DHT22;104;53.590;10.004;2022-09-24T04:00:55;9.20;96.80
240;DHT22;104;53.590;10.004;2022-09-24T04:03:23;9.30;96.80
240;DHT22;104;53.590;10.004;2022-09-24T04:05:50;9.40;96.80
240;DHT22;104;53.590;10.004;2022-09-24T04:08:17;9.50;96.80
240;DHT22;104;53.590;10.004;2022-09-24T04:10:45;9.50;96.70
240;DHT22;104;53.590;10.004;2022-09-24T04:13:13;9.60;96.60
240;DHT22;104;53.590;10.004;2022-09-24T04:15:40;9.60;96.50
240;DHT22;104;53.590;10.004;2022-09-24T04:18:09;9.70;96.10
240;DHT22;104;53.590;10.004;2022-09-24T04:20:36;9.70;95.80
240;DHT22;104;53.590;10.004;2022-09-24T04:23:04;9.70;95.70
240;DHT22;104;53.590;10.004;2022-09-24T04:25:31;9.80;95.50
240;DHT22;104;53.590;10.004;2022-09-24T04:28:00;9.90;95.30
240;DHT22;104;53.590;10.004;2022-09-24T04:30:28;9.90;95.20
240;DHT22;104;53.590;10.004;2022-09-24T04:32:56;9.90;94.70
240;DHT22;104;53.590;10.004;2022-09-24T04:35:27;9.80;94.70
240;DHT22;104;53.590;10.004;2022-09-24T04:37:55;9.80;94.70
240;DHT22;104;53.590;10.004;2022-09-24T04:40:22;9.80;94.60
240;DHT22;104;53.590;10.004;2022-09-24T04:42:49;9.80;95.10
240;DHT22;104;53.590;10.004;2022-09-24T04:45:17;9.80;94.70
240;DHT22;104;53.590;10.004;2022-09-24T04:47:45;9.70;94.90
240;DHT22;104;53.590;10.004;2022-09-24T04:50:18;9.70;95.00
240;DHT22;104;53.590;10.004;2022-09-24T04:52:47;9.70;94.80
240;DHT22;104;53.590;10.004;2022-09-24T04:55:14;9.70;95.00
240;DHT22;104;53.590;10.004;2022-09-24T04:57:41;9.70;94.90
240;DHT22;104;53.590;10.004;2022-09-24T05:00:13;9.70;94.90
240;DHT22;104;53.590;10.004;2022-09-24T05:02:40;9.70;94.90
240;DHT22;104;53.590;10.004;2022-09-24T05:05:08;9.60;95.20
240;DHT22;104;53.590;10.004;2022-09-24T05:07:36;9.60;95.40
240;DHT22;104;53.590;10.004;2022-09-24T05:10:06;9.50;95.60
240;DHT22;104;53.590;10.004;2022-09-24T05:12:33;9.50;95.70
240;DHT22;104;53.590;10.004;2022-09-24T05:17:28;9.40;96.10
240;DHT22;104;53.590;10.004;2022-09-24T05:22:24;9.40;96.60
240;DHT22;104;53.590;10.004;2022-09-24T05:24:52;9.40;96.60
240;DHT22;104;53.590;10.004;2022-09-24T05:27:21;9.50;96.40
240;DHT22;104;53.590;10.004;2022-09-24T05:29:49;9.60;96.20
240;DHT22;104;53.590;10.004;2022-09-24T05:32:17;9.60;96.00
240;DHT22;104;53.590;10.004;2022-09-24T05:34:46;9.70;96.00
240;DHT22;104;53.590;10.004;2022-09-24T05:37:13;9.70;95.70
240;DHT22;104;53.590;10.004;2022-09-24T05:39:41;9.90;95.30
240;DHT22;104;53.590;10.004;2022-09-24T05:42:09;9.90;95.30
240;DHT22;104;53.590;10.004;2022-09-24T05:44:41;10.00;95.30
240;DHT22;104;53.590;10.004;2022-09-24T05:47:09;10.10;94.60
240;DHT22;104;53.590;10.004;2022-09-24T05:49:36;10.10;94.40
240;DHT22;104;53.590;10.004;2022-09-24T05:52:04;10.20;94.20
240;DHT22;104;53.590;10.004;2022-09-24T05:54:31;10.30;93.70
240;DHT22;104;53.590;10.004;2022-09-24T05:56:59;10.40;93.20
240;DHT22;104;53.590;10.004;2022-09-24T05:59:26;10.50;93.00
240;DHT22;104;53.590;10.004;2022-09-24T06:01:54;10.60;92.80
240;DHT22;104;53.590;10.004;2022-09-24T06:04:22;10.70;92.40
240;DHT22;104;53.590;10.004;2022-09-24T06:06:49;10.80;92.00
240;DHT22;104;53.590;10.004;2022-09-24T06:09:17;10.80;91.60
240;DHT22;104;53.590;10.004;2022-09-24T06:11:44;10.90;91.50
240;DHT22;104;53.590;10.004;2022-09-24T06:14:13;10.90;91.30
240;DHT22;104;53.590;10.004;2022-09-24T06:16:43;10.90;91.40
240;DHT22;104;53.590;10.004;2022-09-24T06:19:11;11.00;91.10
240;DHT22;104;53.590;10.004;2022-09-24T06:21:38;11.10;90.80
240;DHT22;104;53.590;10.004;2022-09-24T06:24:05;11.30;90.60
240;DHT22;104;53.590;10.004;2022-09-24T06:29:00;11.50;89.30
240;DHT22;104;53.590;10.004;2022-09-24T06:31:27;11.60;89.30
240;DHT22;104;53.590;10.004;2022-09-24T06:36:23;11.90;88.20
240;DHT22;104;53.590;10.004;2022-09-24T06:38:50;12.00;88.20
240;DHT22;104;53.590;10.004;2022-09-24T06:41:17;12.00;87.90
240;DHT22;104;53.590;10.004;2022-09-24T06:43:44;12.00;87.40
240;DHT22;104;53.590;10.004;2022-09-24T06:46:12;11.90;88.20
240;DHT22;104;53.590;10.004;2022-09-24T06:48:40;11.90;88.20
240;DHT22;104;53.590;10.004;2022-09-24T06:51:07;11.90;88.40
240;DHT22;104;53.590;10.004;2022-09-24T06:53:36;11.80;88.70
240;DHT22;104;53.590;10.004;2022-09-24T06:56:03;11.80;88.80
240;DHT22;104;53.590;10.004;2022-09-24T06:58:30;11.90;88.80
240;DHT22;104;53.590;10.004;2022-09-24T07:01:00;11.90;88.60
240;DHT22;104;53.590;10.004;2022-09-24T07:03:29;11.90;88.50
240;DHT22;104;53.590;10.004;2022-09-24T07:06:00;11.90;88.70
240;DHT22;104;53.590;10.004;2022-09-24T07:08:27;12.00;88.50
240;DHT22;104;53.590;10.004;2022-09-24T07:10:55;11.90;88.60
240;DHT22;104;53.590;10.004;2022-09-24T07:13:22;11.90;88.80
240;DHT22;104;53.590;10.004;2022-09-24T07:15:50;11.80;89.20
240;DHT22;104;53.590;10.004;2022-09-24T07:18:18;11.80;89.60
240;DHT22;104;53.590;10.004;2022-09-24T07:20:50;11.70;89.90
240;DHT22;104;53.590;10.004;2022-09-24T07:23:18;11.60;90.70
240;DHT22;104;53.590;10.004;2022-09-24T07:25:46;11.50;91.30
240;DHT22;104;53.590;10.004;2022-09-24T07:28:15;11.50;91.60
240;DHT22;104;53.590;10.004;2022-09-24T07:30:43;11.50;91.80
240;DHT22;104;53.590;10.004;2022-09-24T07:33:10;11.50;91.80
240;DHT22;104;53.590;10.004;2022-09-24T07:35:37;11.50;91.80
240;DHT22;104;53.590;10.004;2022-09-24T07:38:07;11.60;91.60
240;DHT22;104;53.590;10.004;2022-09-24T07:40:36;11.70;91.20
240;DHT22;104;53.590;10.004;2022-09-24T07:43:03;11.70;91.20
240;DHT22;104;53.590;10.004;2022-09-24T07:45:37;11.70;91.30
240;DHT22;104;53.590;10.004;2022-09-24T07:48:05;11.80;91.00
240;DHT22;104;53.590;10.004;2022-09-24T07:50:36;11.90;90.60
240;DHT22;104;53.590;10.004;2022-09-24T07:53:04;12.00;90.60
240;DHT22;104;53.590;10.004;2022-09-24T07:55:32;12.10;90.50
240;DHT22;104;53.590;10.004;2022-09-24T07:58:06;12.30;89.80
240;DHT22;104;53.590;10.004;2022-09-24T08:00:33;12.60;88.90
240;DHT22;104;53.590;10.004;2022-09-24T08:03:02;12.90;87.50
240;DHT22;104;53.590;10.004;2022-09-24T08:05:30;13.10;87.20
240;DHT22;104;53.590;10.004;2022-09-24T08:07:58;13.40;86.30
240;DHT22;104;53.590;10.004;2022-09-24T08:10:26;14.00;84.10
240;DHT22;104;53.590;10.004;2022-09-24T08:12:53;14.00;84.10
240;DHT22;104;53.590;10.004;2022-09-24T08:15:21;14.10;83.30
240;DHT22;104;53.590;10.004;2022-09-24T08:17:48;14.30;82.70
240;DHT22;104;53.590;10.004;2022-09-24T08:20:17;14.40;82.20
240;DHT22;104;53.590;10.004;2022-09-24T08:22:44;14.40;81.70
240;DHT22;104;53.590;10.004;2022-09-24T08:25:13;14.30;81.70
240;DHT22;104;53.590;10.004;2022-09-24T08:30:09;14.10;83.10
240;DHT22;104;53.590;10.004;2022-09-24T08:32:36;14.10;82.60
240;DHT22;104;53.590;10.004;2022-09-24T08:35:04;14.00;83.20
240;DHT22;104;53.590;10.004;2022-09-24T08:37:34;13.90;83.30
240;DHT22;104;53.590;10.004;2022-09-24T08:40:01;13.90;83.80
240;DHT22;104;53.590;10.004;2022-09-24T08:42:35;13.80;84.10
240;DHT22;104;53.590;10.004;2022-09-24T08:45:09;13.90;84.30
240;DHT22;104;53.590;10.004;2022-09-24T08:47:56;13.90;84.50
240;DHT22;104;53.590;10.004;2022-09-24T08:50:26;14.00;84.40
240;DHT22;104;53.590;10.004;2022-09-24T08:53:11;14.00;84.10
240;DHT22;104;53.590;10.004;2022-09-24T08:55:44;14.00;84.10
240;DHT22;104;53.590;10.004;2022-09-24T08:58:27;14.10;84.10
240;DHT22;104;53.590;10.004;2022-09-24T09:01:03;14.10;83.90
240;DHT22;104;53.590;10.004;2022-09-24T09:03:35;14.20;83.80
240;DHT22;104;53.590;10.004;2022-09-24T09:06:07;14.40;83.50
240;DHT22;104;53.590;10.004;2022-09-24T09:08:44;14.70;82.40
240;DHT22;104;53.590;10.004;2022-09-24T09:11:19;15.00;81.90
240;DHT22;104;53.590;10.004;2022-09-24T09:13:51;15.20;81.20
240;DHT22;104;53.590;10.004;2022-09-24T09:16:25;15.40;80.40
240;DHT22;104;53.590;10.004;2022-09-24T09:18:57;15.50;79.80
240;DHT22;104;53.590;10.004;2022-09-24T09:21:30;15.60;79.50
240;DHT22;104;53.590;10.004;2022-09-24T09:24:02;15.70;79.30
240;DHT22;104;53.590;10.004;2022-09-24T09:26:30;16.00;78.90
240;DHT22;104;53.590;10.004;2022-09-24T09:28:58;16.40;77.40
240;DHT22;104;53.590;10.004;2022-09-24T09:31:32;16.40;77.10
240;DHT22;104;53.590;10.004;2022-09-24T09:34:12;16.40;77.40
240;DHT22;104;53.590;10.004;2022-09-24T09:36:54;16.60;77.10
240;DHT22;104;53.590;10.004;2022-09-24T09:39:34;16.60;76.30
240;DHT22;104;53.590;10.004;2022-09-24T09:42:14;16.50;76.90
240;DHT22;104;53.590;10.004;2022-09-24T09:44:43;16.40;77.70
240;DHT22;104;53.590;10.004;2022-09-24T09:47:18;16.50;77.80
240;DHT22;104;53.590;10.004;2022-09-24T09:49:47;16.30;78.00
240;DHT22;104;53.590;10.004;2022-09-24T09:52:20;16.30;78.60
240;DHT22;104;53.590;10.004;2022-09-24T09:54:50;16.40;78.60
240;DHT22;104;53.590;10.004;2022-09-24T09:57:19;16.40;78.20
240;DHT22;104;53.590;10.004;2022-09-24T09:59:49;16.20;78.70
240;DHT22;104;53.590;10.004;2022-09-24T10:02:23;16.20;79.20
240;DHT22;104;53.590;10.004;2022-09-24T10:04:53;16.40;79.10
240;DHT22;104;53.590;10.004;2022-09-24T10:07:21;16.60;78.40
240;DHT22;104;53.590;10.004;2022-09-24T10:10:01;16.80;77.70
240;DHT22;104;53.590;10.004;2022-09-24T10:12:29;16.90;77.50
240;DHT22;104;53.590;10.004;2022-09-24T10:14:59;17.10;77.00
240;DHT22;104;53.590;10.004;2022-09-24T10:17:29;17.10;77.00
240;DHT22;104;53.590;10.004;2022-09-24T10:19:59;17.30;76.60
240;DHT22;104;53.590;10.004;2022-09-24T10:22:27;17.50;76.10
240;DHT22;104;53.590;10.004;2022-09-24T10:24:58;17.60;75.20
240;DHT22;104;53.590;10.004;2022-09-24T10:27:31;17.60;75.00
240;DHT22;104;53.590;10.004;2022-09-24T10:30:01;17.50;75.80
240;DHT22;104;53.590;10.004;2022-09-24T10:32:54;17.30;76.70
240;DHT22;104;53.590;10.004;2022-09-24T10:35:25;17.10;77.40
240;DHT22;104;53.590;10.004;2022-09-24T10:37:57;17.20;77.40
240;DHT22;104;53.590;10.004;2022-09-24T10:40:27;17.10;77.50
240;DHT22;104;53.590;10.004;2022-09-24T10:42:57;17.10;77.90
240;DHT22;104;53.590;10.004;2022-09-24T10:48:25;16.80;79.10
240;DHT22;104;53.590;10.004;2022-09-24T10:51:01;16.70;79.50
240;DHT22;104;53.590;10.004;2022-09-24T10:53:41;16.80;79.50
240;DHT22;104;53.590;10.004;2022-09-24T10:56:19;16.90;79.40
240;DHT22;104;53.590;10.004;2022-09-24T11:01:47;17.00;79.20
240;DHT22;104;53.590;10.004;2022-09-24T11:04:25;17.00;79.40
240;DHT22;104;53.590;10.004;2022-09-24T11:07:18;17.20;79.20
240;DHT22;104;53.590;10.004;2022-09-24T11:09:52;17.30;78.80
240;DHT22;104;53.590;10.004;2022-09-24T11:12:29;17.50;78.20
240;DHT22;104;53.590;10.004;2022-09-24T11:15:11;17.60;78.10
240;DHT22;104;53.590;10.004;2022-09-24T11:17:50;17.70;77.90
240;DHT22;104;53.590;10.004;2022-09-24T11:20:34;17.60;78.30
240;DHT22;104;53.590;10.004;2022-09-24T11:23:18;17.40;78.30
240;DHT22;104;53.590;10.004;2022-09-24T11:25:54;17.20;79.20
240;DHT22;104;53.590;10.004;2022-09-24T11:28:38;17.20;79.40
240;DHT22;104;53.590;10.004;2022-09-24T11:31:11;17.20;79.40
240;DHT22;104;53.590;10.004;2022-09-24T11:33:55;17.10;80.00
240;DHT22;104;53.590;10.004;2022-09-24T11:36:51;16.90;80.50
240;DHT22;104;53.590;10.004;2022-09-24T11:39:32;16.70;81.40
240;DHT22;104;53.590;10.004;2022-09-24T11:42:06;16.60;82.00
240;DHT22;104;53.590;10.004;2022-09-24T11:45:22;16.60;82.40
240;DHT22;104;53.590;10.004;2022-09-24T11:48:21;16.60;83.00
240;DHT22;104;53.590;10.004;2022-09-24T11:50:59;16.40;84.50
240;DHT22;104;53.590;10.004;2022-09-24T11:53:33;16.40;85.20
240;DHT22;104;53.590;10.004;2022-09-24T11:56:08;16.50;84.90
240;DHT22;104;53.590;10.004;2022-09-24T11:58:40;16.50;84.20
240;DHT22;104;53.590;10.004;2022-09-24T12:01:13;16.40;84.60
240;DHT22;104;53.590;10.004;2022-09-24T12:03:46;16.30;85.90
240;DHT22;104;53.590;10.004;2022-09-24T12:06:19;16.40;86.30
240;DHT22;104;53.590;10.004;2022-09-24T12:08:52;16.50;85.70
240;DHT22;104;53.590;10.004;2022-09-24T12:11:25;16.60;85.60
240;DHT22;104;53.590;10.004;2022-09-24T12:13:59;16.50;86.20
240;DHT22;104;53.590;10.004;2022-09-24T12:16:35;16.60;85.90
240;DHT22;104;53.590;10.004;2022-09-24T12:19:07;16.60;85.60
240;DHT22;104;53.590;10.004;2022-09-24T12:21:37;16.70;85.70
240;DHT22;104;53.590;10.004;2022-09-24T12:24:10;16.70;85.10
240;DHT22;104;53.590;10.004;2022-09-24T12:26:41;16.70;85.00
240;DHT22;104;53.590;10.004;2022-09-24T12:29:23;16.70;85.00
240;DHT22;104;53.590;10.004;2022-09-24T12:32:18;16.70;85.60
240;DHT22;104;53.590;10.004;2022-09-24T12:35:08;16.70;85.70
240;DHT22;104;53.590;10.004;2022-09-24T12:37:39;16.70;85.70
240;DHT22;104;53.590;10.004;2022-09-24T12:40:20;16.60;86.10
240;DHT22;104;53.590;10.004;2022-09-24T12:42:55;16.60;85.90
240;DHT22;104;53.590;10.004;2022-09-24T12:45:24;16.80;86.00
240;DHT22;104;53.590;10.004;2022-09-24T12:47:55;16.80;86.40
240;DHT22;104;53.590;10.004;2022-09-24T12:50:25;16.80;84.80
240;DHT22;104;53.590;10.004;2022-09-24T12:52:53;16.80;84.70
240;DHT22;104;53.590;10.004;2022-09-24T12:55:22;16.90;84.40
240;DHT22;104;53.590;10.004;2022-09-24T12:57:52;16.80;84.60
240;DHT22;104;53.590;10.004;2022-09-24T13:00:36;16.80;84.40
240;DHT22;104;53.590;10.004;2022-09-24T13:03:06;16.90;84.40
240;DHT22;104;53.590;10.004;2022-09-24T13:05:54;17.00;84.80
240;DHT22;104;53.590;10.004;2022-09-24T13:08:25;17.10;84.70
240;DHT22;104;53.590;10.004;2022-09-24T13:10:56;17.00;84.70
240;DHT22;104;53.590;10.004;2022-09-24T13:13:26;17.00;85.00
240;DHT22;104;53.590;10.004;2022-09-24T13:16:01;16.90;85.90
240;DHT22;104;53.590;10.004;2022-09-24T13:18:30;17.00;86.30
240;DHT22;104;53.590;10.004;2022-09-24T13:21:04;17.00;86.10
240;DHT22;104;53.590;10.004;2022-09-24T13:23:43;17.00;86.40
240;DHT22;104;53.590;10.004;2022-09-24T13:26:27;17.00;86.40
240;DHT22;104;53.590;10.004;2022-09-24T13:28:55;16.90;85.70
240;DHT22;104;53.590;10.004;2022-09-24T13:31:34;16.80;85.70
240;DHT22;104;53.590;10.004;2022-09-24T13:34:11;16.60;86.10
240;DHT22;104;53.590;10.004;2022-09-24T13:36:44;16.40;86.50
240;DHT22;104;53.590;10.004;2022-09-24T13:39:15;16.30;87.30
240;DHT22;104;53.590;10.004;2022-09-24T13:41:50;16.40;88.00
240;DHT22;104;53.590;10.004;2022-09-24T13:44:22;16.40;88.60
240;DHT22;104;53.590;10.004;2022-09-24T13:46:57;16.40;89.40
240;DHT22;104;53.590;10.004;2022-09-24T13:49:25;16.40;89.70
240;DHT22;104;53.590;10.004;2022-09-24T13:52:03;16.40;89.30
240;DHT22;104;53.590;10.004;2022-09-24T13:54:36;16.40;88.90
240;DHT22;104;53.590;10.004;2022-09-24T13:57:10;16.50;89.60
240;DHT22;104;53.590;10.004;2022-09-24T13:59:37;16.70;89.60
240;DHT22;104;53.590;10.004;2022-09-24T14:02:22;16.80;89.00
240;DHT22;104;53.590;10.004;2022-09-24T14:04:54;16.90;89.60
240;DHT22;104;53.590;10.004;2022-09-24T14:07:24;16.90;89.70
240;DHT22;104;53.590;10.004;2022-09-24T14:10:01;16.90;89.10
240;DHT22;104;53.590;10.004;2022-09-24T14:12:28;16.90;89.70
240;DHT22;104;53.590;10.004;2022-09-24T14:14:55;16.90;89.20
240;DHT22;104;53.590;10.004;2022-09-24T14:17:23;16.90;88.10
240;DHT22;104;53.590;10.004;2022-09-24T14:19:54;16.70;88.40
240;DHT22;104;53.590;10.004;2022-09-24T14:22:26;16.50;88.30
240;DHT22;104;53.590;10.004;2022-09-24T14:24:59;16.40;89.00
240;DHT22;104;53.590;10.004;2022-09-24T14:27:31;16.30;90.50
240;DHT22;104;53.590;10.004;2022-09-24T14:30:03;16.20;91.40
240;DHT22;104;53.590;10.004;2022-09-24T14:32:32;16.20;90.90
240;DHT22;104;53.590;10.004;2022-09-24T14:35:05;16.20;90.40
240;DHT22;104;53.590;10.004;2022-09-24T14:37:37;16.20;90.60
240;DHT22;104;53.590;10.004;2022-09-24T14:40:11;16.20;90.90
240;DHT22;104;53.590;10.004;2022-09-24T14:42:40;16.20;91.50
240;DHT22;104;53.590;10.004;2022-09-24T14:45:09;16.20;92.20
240;DHT22;104;53.590;10.004;2022-09-24T14:47:42;16.30;91.40
240;DHT22;104;53.590;10.004;2022-09-24T14:50:30;16.40;91.80
240;DHT22;104;53.590;10.004;2022-09-24T14:53:10;16.40;91.20
240;DHT22;104;53.590;10.004;2022-09-24T14:55:39;16.30;91.60
240;DHT22;104;53.590;10.004;2022-09-24T14:58:22;16.20;92.30
240;DHT22;104;53.590;10.004;2022-09-24T15:00:51;16.00;92.70
240;DHT22;104;53.590;10.004;2022-09-24T15:03:27;16.00;93.10
240;DHT22;104;53.590;10.004;2022-09-24T15:06:06;15.90;93.50
240;DHT22;104;53.590;10.004;2022-09-24T15:08:40;15.80;93.90
240;DHT22;104;53.590;10.004;2022-09-24T15:11:15;15.70;94.30
240;DHT22;104;53.590;10.004;2022-09-24T15:13:43;15.60;94.60
240;DHT22;104;53.590;10.004;2022-09-24T15:16:18;15.60;94.80
240;DHT22;104;53.590;10.004;2022-09-24T15:18:57;15.50;95.50
240;DHT22;104;53.590;10.004;2022-09-24T15:21:24;15.50;95.80
240;DHT22;104;53.590;10.004;2022-09-24T15:23:54;15.50;95.90
240;DHT22;104;53.590;10.004;2022-09-24T15:26:24;15.60;96.30
240;DHT22;104;53.590;10.004;2022-09-24T15:28:53;15.60;96.00
240;DHT22;104;53.590;10.004;2022-09-24T15:31:22;15.60;96.10
240;DHT22;104;53.590;10.004;2022-09-24T15:33:50;15.50;96.50
240;DHT22;104;53.590;10.004;2022-09-24T15:36:17;15.40;96.80
240;DHT22;104;53.590;10.004;2022-09-24T15:38:46;15.40;96.80
240;DHT22;104;53.590;10.004;2022-09-24T15:41:14;15.40;96.80
240;DHT22;104;53.590;10.004;2022-09-24T15:43:41;15.40;96.80
240;DHT22;104;53.590;10.004;2022-09-24T15:46:08;15.30;96.80
240;DHT22;104;53.590;10.004;2022-09-24T15:48:35;15.30;96.80
240;DHT22;104;53.590;10.004;2022-09-24T15:51:03;15.20;96.80
240;DHT22;104;53.590;10.004;2022-09-24T15:53:30;15.20;96.80
240;DHT22;104;53.590;10.004;2022-09-24T15:55:59;15.20;96.80
240;DHT22;104;53.590;10.004;2022-09-24T15:58:30;15.20;96.80
240;DHT22;104;53.590;10.004;2022-09-24T16:00:57;15.10;96.80
240;DHT22;104;53.590;10.004;2022-09-24T16:03:24;15.10;96.80
240;DHT22;104;53.590;10.004;2022-09-24T16:05:53;15.00;96.80
240;DHT22;104;53.590;10.004;2022-09-24T16:08:21;15.00;96.80
240;DHT22;104;53.590;10.004;2022-09-24T16:10:49;15.00;96.80
240;DHT22;104;53.590;10.004;2022-09-24T16:13:17;14.90;96.80
240;DHT22;104;53.590;10.004;2022-09-24T16:15:46;14.90;96.80
240;DHT22;104;53.590;10.004;2022-09-24T16:18:15;14.80;96.80
240;DHT22;104;53.590;10.004;2022-09-24T16:20:42;14.80;96.80
240;DHT22;104;53.590;10.004;2022-09-24T16:23:12;14.80;96.80
240;DHT22;104;53.590;10.004;2022-09-24T16:25:40;14.70;96.80
240;DHT22;104;53.590;10.004;2022-09-24T16:28:08;14.80;96.80
240;DHT22;104;53.590;10.004;2022-09-24T16:30:35;14.80;96.80
240;DHT22;104;53.590;10.004;2022-09-24T16:33:04;14.80;96.80
240;DHT22;104;53.590;10.004;2022-09-24T16:35:31;14.80;96.80
240;DHT22;104;53.590;10.004;2022-09-24T16:38:00;14.70;96.80
240;DHT22;104;53.590;10.004;2022-09-24T16:40:27;14.80;96.80
240;DHT22;104;53.590;10.004;2022-09-24T16:42:54;14.70;96.80
240;DHT22;104;53.590;10.004;2022-09-24T16:45:22;14.80;96.80
240;DHT22;104;53.590;10.004;2022-09-24T16:47:49;14.80;96.80
240;DHT22;104;53.590;10.004;2022-09-24T16:50:17;14.80;96.80
240;DHT22;104;53.590;10.004;2022-09-24T16:52:44;14.70;96.80
240;DHT22;104;53.590;10.004;2022-09-24T16:55:13;14.70;96.80
240;DHT22;104;53.590;10.004;2022-09-24T16:57:40;14.60;96.80
240;DHT22;104;53.590;10.004;2022-09-24T17:00:09;14.60;96.80
240;DHT22;104;53.590;10.004;2022-09-24T17:02:37;14.50;96.80
240;DHT22;104;53.590;10.004;2022-09-24T17:05:05;14.50;96.80
240;DHT22;104;53.590;10.004;2022-09-24T17:07:36;14.50;96.80
240;DHT22;104;53.590;10.004;2022-09-24T17:10:04;14.40;96.80
240;DHT22;104;53.590;10.004;2022-09-24T17:12:42;14.40;96.80
240;DHT22;104;53.590;10.004;2022-09-24T17:15:10;14.30;96.80
240;DHT22;104;53.590;10.004;2022-09-24T17:17:38;14.30;96.80